Aktuální stav
Data Offline



Tlak
1016.92 (hPa) - 30.03 (inHG)
Viďitelnost

10.0 (km) - 6.2 (míle)
   Teplota
4  °C
39°F
4  °C
Rosný bod
100  %
 Vlhkost
   Rychlost větru
0  km/h
0  kts
0  mph
0  m/s
   Směr větru
Calm
Sever
   Leťiště
LKLN
Location Plzen Line 36 km (22.37 mi)
Metar :LKLN 200800Z AUTO 00000KT 9999 ///////// 04/04 Q1017
Wed 20th November 10:00 am